sensor_id;sensor_type;location;lat;lon;timestamp;P1;durP1;ratioP1;P2;durP2;ratioP2
3415;SDS011;1721;51.238;9.562;2022-08-25T00:01:17;8.13;;;4.55;;
3415;SDS011;1721;51.238;9.562;2022-08-25T00:03:47;8.45;;;4.60;;
3415;SDS011;1721;51.238;9.562;2022-08-25T00:06:13;9.80;;;4.97;;
3415;SDS011;1721;51.238;9.562;2022-08-25T00:08:40;9.80;;;4.63;;
3415;SDS011;1721;51.238;9.562;2022-08-25T00:11:08;7.75;;;4.30;;
3415;SDS011;1721;51.238;9.562;2022-08-25T00:13:37;10.27;;;4.70;;
3415;SDS011;1721;51.238;9.562;2022-08-25T00:16:07;10.50;;;4.90;;
3415;SDS011;1721;51.238;9.562;2022-08-25T00:18:37;9.90;;;5.00;;
3415;SDS011;1721;51.238;9.562;2022-08-25T00:21:04;10.98;;;5.15;;
3415;SDS011;1721;51.238;9.562;2022-08-25T00:23:29;9.80;;;5.00;;
3415;SDS011;1721;51.238;9.562;2022-08-25T00:25:55;10.10;;;5.30;;
3415;SDS011;1721;51.238;9.562;2022-08-25T00:28:21;11.38;;;5.10;;
3415;SDS011;1721;51.238;9.562;2022-08-25T00:30:47;9.40;;;5.03;;
3415;SDS011;1721;51.238;9.562;2022-08-25T00:33:13;11.75;;;5.22;;
3415;SDS011;1721;51.238;9.562;2022-08-25T00:35:39;11.32;;;5.45;;
3415;SDS011;1721;51.238;9.562;2022-08-25T00:38:06;9.38;;;5.28;;
3415;SDS011;1721;51.238;9.562;2022-08-25T00:40:32;13.43;;;5.40;;
3415;SDS011;1721;51.238;9.562;2022-08-25T00:42:59;10.73;;;5.35;;
3415;SDS011;1721;51.238;9.562;2022-08-25T00:45:24;11.70;;;5.50;;
3415;SDS011;1721;51.238;9.562;2022-08-25T00:47:50;20.30;;;5.00;;
3415;SDS011;1721;51.238;9.562;2022-08-25T00:50:16;9.70;;;5.00;;
3415;SDS011;1721;51.238;9.562;2022-08-25T00:52:43;13.05;;;5.10;;
3415;SDS011;1721;51.238;9.562;2022-08-25T00:55:17;11.23;;;5.50;;
3415;SDS011;1721;51.238;9.562;2022-08-25T00:57:45;11.55;;;5.60;;
3415;SDS011;1721;51.238;9.562;2022-08-25T01:00:18;9.17;;;5.33;;
3415;SDS011;1721;51.238;9.562;2022-08-25T01:02:46;9.10;;;5.10;;
3415;SDS011;1721;51.238;9.562;2022-08-25T01:05:12;10.20;;;5.57;;
3415;SDS011;1721;51.238;9.562;2022-08-25T01:07:38;11.70;;;5.53;;
3415;SDS011;1721;51.238;9.562;2022-08-25T01:10:06;10.05;;;5.45;;
3415;SDS011;1721;51.238;9.562;2022-08-25T01:12:33;12.10;;;5.35;;
3415;SDS011;1721;51.238;9.562;2022-08-25T01:15:01;9.43;;;5.20;;
3415;SDS011;1721;51.238;9.562;2022-08-25T01:17:38;11.35;;;5.50;;
3415;SDS011;1721;51.238;9.562;2022-08-25T01:20:13;14.13;;;5.25;;
3415;SDS011;1721;51.238;9.562;2022-08-25T01:22:40;9.70;;;5.60;;
3415;SDS011;1721;51.238;9.562;2022-08-25T01:25:09;14.65;;;5.70;;
3415;SDS011;1721;51.238;9.562;2022-08-25T01:27:48;12.65;;;5.70;;
3415;SDS011;1721;51.238;9.562;2022-08-25T01:30:14;11.10;;;5.35;;
3415;SDS011;1721;51.238;9.562;2022-08-25T01:32:39;11.30;;;5.63;;
3415;SDS011;1721;51.238;9.562;2022-08-25T01:35:05;10.63;;;5.90;;
3415;SDS011;1721;51.238;9.562;2022-08-25T01:37:32;11.03;;;5.63;;
3415;SDS011;1721;51.238;9.562;2022-08-25T01:39:58;11.93;;;5.30;;
3415;SDS011;1721;51.238;9.562;2022-08-25T01:45:12;11.85;;;5.85;;
3415;SDS011;1721;51.238;9.562;2022-08-25T01:47:38;12.57;;;6.13;;
3415;SDS011;1721;51.238;9.562;2022-08-25T01:50:04;11.23;;;5.77;;
3415;SDS011;1721;51.238;9.562;2022-08-25T01:52:40;10.60;;;5.50;;
3415;SDS011;1721;51.238;9.562;2022-08-25T01:55:13;13.15;;;6.38;;
3415;SDS011;1721;51.238;9.562;2022-08-25T01:57:39;12.17;;;5.43;;
3415;SDS011;1721;51.238;9.562;2022-08-25T02:00:05;12.63;;;5.70;;
3415;SDS011;1721;51.238;9.562;2022-08-25T02:02:33;11.77;;;5.53;;
3415;SDS011;1721;51.238;9.562;2022-08-25T02:04:59;10.80;;;5.70;;
3415;SDS011;1721;51.238;9.562;2022-08-25T02:07:24;12.30;;;5.83;;
3415;SDS011;1721;51.238;9.562;2022-08-25T02:09:50;11.53;;;6.10;;
3415;SDS011;1721;51.238;9.562;2022-08-25T02:12:15;12.83;;;5.50;;
3415;SDS011;1721;51.238;9.562;2022-08-25T02:14:41;9.27;;;5.22;;
3415;SDS011;1721;51.238;9.562;2022-08-25T02:17:07;11.82;;;6.38;;
3415;SDS011;1721;51.238;9.562;2022-08-25T02:19:33;13.05;;;6.13;;
3415;SDS011;1721;51.238;9.562;2022-08-25T02:21:59;14.68;;;6.20;;
3415;SDS011;1721;51.238;9.562;2022-08-25T02:24:25;12.57;;;5.97;;
3415;SDS011;1721;51.238;9.562;2022-08-25T02:26:51;13.03;;;6.30;;
3415;SDS011;1721;51.238;9.562;2022-08-25T02:29:16;12.52;;;6.00;;
3415;SDS011;1721;51.238;9.562;2022-08-25T02:31:42;11.27;;;5.95;;
3415;SDS011;1721;51.238;9.562;2022-08-25T02:34:08;13.80;;;6.13;;
3415;SDS011;1721;51.238;9.562;2022-08-25T02:36:35;10.82;;;5.72;;
3415;SDS011;1721;51.238;9.562;2022-08-25T02:39:02;10.82;;;5.45;;
3415;SDS011;1721;51.238;9.562;2022-08-25T02:41:30;14.13;;;5.80;;
3415;SDS011;1721;51.238;9.562;2022-08-25T02:43:57;12.68;;;6.50;;
3415;SDS011;1721;51.238;9.562;2022-08-25T02:46:24;12.07;;;5.40;;
3415;SDS011;1721;51.238;9.562;2022-08-25T02:48:50;12.82;;;5.72;;
3415;SDS011;1721;51.238;9.562;2022-08-25T02:51:17;10.63;;;5.60;;
3415;SDS011;1721;51.238;9.562;2022-08-25T02:53:45;11.33;;;5.70;;
3415;SDS011;1721;51.238;9.562;2022-08-25T02:56:12;11.73;;;5.57;;
3415;SDS011;1721;51.238;9.562;2022-08-25T02:58:38;11.05;;;6.05;;
3415;SDS011;1721;51.238;9.562;2022-08-25T03:01:05;13.80;;;6.10;;
3415;SDS011;1721;51.238;9.562;2022-08-25T03:03:31;11.23;;;5.38;;
3415;SDS011;1721;51.238;9.562;2022-08-25T03:05:58;10.35;;;5.45;;
3415;SDS011;1721;51.238;9.562;2022-08-25T03:08:23;11.80;;;5.90;;
3415;SDS011;1721;51.238;9.562;2022-08-25T03:10:50;13.40;;;6.30;;
3415;SDS011;1721;51.238;9.562;2022-08-25T03:13:15;13.65;;;5.70;;
3415;SDS011;1721;51.238;9.562;2022-08-25T03:15:42;11.13;;;5.80;;
3415;SDS011;1721;51.238;9.562;2022-08-25T03:18:08;10.63;;;5.70;;
3415;SDS011;1721;51.238;9.562;2022-08-25T03:20:35;11.15;;;5.97;;
3415;SDS011;1721;51.238;9.562;2022-08-25T03:23:01;11.43;;;6.00;;
3415;SDS011;1721;51.238;9.562;2022-08-25T03:25:28;11.32;;;5.50;;
3415;SDS011;1721;51.238;9.562;2022-08-25T03:28:12;13.10;;;6.17;;
3415;SDS011;1721;51.238;9.562;2022-08-25T03:30:38;10.88;;;5.70;;
3415;SDS011;1721;51.238;9.562;2022-08-25T03:33:04;13.93;;;6.07;;
3415;SDS011;1721;51.238;9.562;2022-08-25T03:35:30;12.55;;;6.80;;
3415;SDS011;1721;51.238;9.562;2022-08-25T03:37:55;11.37;;;6.10;;
3415;SDS011;1721;51.238;9.562;2022-08-25T03:40:22;10.90;;;5.80;;
3415;SDS011;1721;51.238;9.562;2022-08-25T03:42:47;15.25;;;6.70;;
3415;SDS011;1721;51.238;9.562;2022-08-25T03:45:14;13.50;;;6.90;;
3415;SDS011;1721;51.238;9.562;2022-08-25T03:47:40;11.73;;;6.05;;
3415;SDS011;1721;51.238;9.562;2022-08-25T03:50:08;14.63;;;5.53;;
3415;SDS011;1721;51.238;9.562;2022-08-25T03:52:35;10.90;;;5.95;;
3415;SDS011;1721;51.238;9.562;2022-08-25T03:55:02;10.65;;;5.65;;
3415;SDS011;1721;51.238;9.562;2022-08-25T03:57:29;12.15;;;6.50;;
3415;SDS011;1721;51.238;9.562;2022-08-25T03:59:55;12.57;;;6.30;;
3415;SDS011;1721;51.238;9.562;2022-08-25T04:02:20;14.40;;;6.57;;
3415;SDS011;1721;51.238;9.562;2022-08-25T04:04:46;13.93;;;7.10;;
3415;SDS011;1721;51.238;9.562;2022-08-25T04:07:11;11.32;;;6.80;;
3415;SDS011;1721;51.238;9.562;2022-08-25T04:09:37;16.55;;;6.80;;
3415;SDS011;1721;51.238;9.562;2022-08-25T04:12:03;13.07;;;6.63;;
3415;SDS011;1721;51.238;9.562;2022-08-25T04:14:29;14.02;;;6.40;;
3415;SDS011;1721;51.238;9.562;2022-08-25T04:16:55;12.88;;;6.57;;
3415;SDS011;1721;51.238;9.562;2022-08-25T04:19:20;13.18;;;6.22;;
3415;SDS011;1721;51.238;9.562;2022-08-25T04:21:46;14.85;;;6.85;;
3415;SDS011;1721;51.238;9.562;2022-08-25T04:24:12;11.00;;;6.50;;
3415;SDS011;1721;51.238;9.562;2022-08-25T04:26:40;15.20;;;6.15;;
3415;SDS011;1721;51.238;9.562;2022-08-25T04:29:08;16.63;;;6.60;;
3415;SDS011;1721;51.238;9.562;2022-08-25T04:31:35;12.70;;;6.80;;
3415;SDS011;1721;51.238;9.562;2022-08-25T04:34:04;13.82;;;6.60;;
3415;SDS011;1721;51.238;9.562;2022-08-25T04:36:31;13.90;;;6.28;;
3415;SDS011;1721;51.238;9.562;2022-08-25T04:38:57;10.93;;;6.07;;
3415;SDS011;1721;51.238;9.562;2022-08-25T04:41:23;11.30;;;6.30;;
3415;SDS011;1721;51.238;9.562;2022-08-25T04:43:50;17.33;;;6.80;;
3415;SDS011;1721;51.238;9.562;2022-08-25T04:46:20;14.63;;;6.65;;
3415;SDS011;1721;51.238;9.562;2022-08-25T04:48:48;14.02;;;6.53;;
3415;SDS011;1721;51.238;9.562;2022-08-25T04:51:15;16.88;;;7.00;;
3415;SDS011;1721;51.238;9.562;2022-08-25T04:53:43;14.55;;;6.60;;
3415;SDS011;1721;51.238;9.562;2022-08-25T04:56:10;10.60;;;5.90;;
3415;SDS011;1721;51.238;9.562;2022-08-25T04:58:37;13.68;;;6.50;;
3415;SDS011;1721;51.238;9.562;2022-08-25T05:01:05;11.73;;;5.75;;
3415;SDS011;1721;51.238;9.562;2022-08-25T05:03:33;11.65;;;6.40;;
3415;SDS011;1721;51.238;9.562;2022-08-25T05:05:59;13.27;;;6.30;;
3415;SDS011;1721;51.238;9.562;2022-08-25T05:08:25;12.52;;;6.35;;
3415;SDS011;1721;51.238;9.562;2022-08-25T05:10:50;18.90;;;7.20;;
3415;SDS011;1721;51.238;9.562;2022-08-25T05:13:18;14.23;;;6.80;;
3415;SDS011;1721;51.238;9.562;2022-08-25T05:15:50;13.38;;;6.47;;
3415;SDS011;1721;51.238;9.562;2022-08-25T05:18:18;14.20;;;6.65;;
3415;SDS011;1721;51.238;9.562;2022-08-25T05:20:45;11.38;;;6.03;;
3415;SDS011;1721;51.238;9.562;2022-08-25T05:23:10;13.47;;;5.90;;
3415;SDS011;1721;51.238;9.562;2022-08-25T05:25:36;12.77;;;6.67;;
3415;SDS011;1721;51.238;9.562;2022-08-25T05:28:02;12.00;;;6.77;;
3415;SDS011;1721;51.238;9.562;2022-08-25T05:30:28;13.00;;;6.53;;
3415;SDS011;1721;51.238;9.562;2022-08-25T05:32:54;14.40;;;7.00;;
3415;SDS011;1721;51.238;9.562;2022-08-25T05:35:19;13.87;;;6.67;;
3415;SDS011;1721;51.238;9.562;2022-08-25T05:37:45;15.82;;;7.60;;
3415;SDS011;1721;51.238;9.562;2022-08-25T05:40:11;13.35;;;6.70;;
3415;SDS011;1721;51.238;9.562;2022-08-25T05:42:37;14.97;;;7.20;;
3415;SDS011;1721;51.238;9.562;2022-08-25T05:45:03;14.35;;;7.32;;
3415;SDS011;1721;51.238;9.562;2022-08-25T05:47:29;16.25;;;7.18;;
3415;SDS011;1721;51.238;9.562;2022-08-25T05:49:55;18.02;;;7.18;;
3415;SDS011;1721;51.238;9.562;2022-08-25T05:52:21;16.13;;;7.77;;
3415;SDS011;1721;51.238;9.562;2022-08-25T05:54:47;16.40;;;7.10;;
3415;SDS011;1721;51.238;9.562;2022-08-25T05:57:12;14.65;;;7.30;;
3415;SDS011;1721;51.238;9.562;2022-08-25T05:59:38;18.92;;;7.50;;
3415;SDS011;1721;51.238;9.562;2022-08-25T06:02:04;16.10;;;8.18;;
3415;SDS011;1721;51.238;9.562;2022-08-25T06:04:48;13.27;;;6.60;;
3415;SDS011;1721;51.238;9.562;2022-08-25T06:07:14;11.68;;;7.07;;
3415;SDS011;1721;51.238;9.562;2022-08-25T06:09:40;13.23;;;6.70;;
3415;SDS011;1721;51.238;9.562;2022-08-25T06:12:06;13.10;;;7.00;;
3415;SDS011;1721;51.238;9.562;2022-08-25T06:14:32;14.10;;;6.88;;
3415;SDS011;1721;51.238;9.562;2022-08-25T06:16:59;22.17;;;6.95;;
3415;SDS011;1721;51.238;9.562;2022-08-25T06:19:25;15.23;;;6.55;;
3415;SDS011;1721;51.238;9.562;2022-08-25T06:21:54;14.10;;;6.90;;
3415;SDS011;1721;51.238;9.562;2022-08-25T06:24:21;14.20;;;6.72;;
3415;SDS011;1721;51.238;9.562;2022-08-25T06:26:47;13.20;;;6.82;;
3415;SDS011;1721;51.238;9.562;2022-08-25T06:29:12;12.75;;;7.10;;
3415;SDS011;1721;51.238;9.562;2022-08-25T06:31:38;14.30;;;6.93;;
3415;SDS011;1721;51.238;9.562;2022-08-25T06:34:04;14.93;;;6.97;;
3415;SDS011;1721;51.238;9.562;2022-08-25T06:36:30;14.80;;;6.82;;
3415;SDS011;1721;51.238;9.562;2022-08-25T06:38:56;14.50;;;7.15;;
3415;SDS011;1721;51.238;9.562;2022-08-25T06:41:21;15.07;;;6.80;;
3415;SDS011;1721;51.238;9.562;2022-08-25T06:43:47;12.77;;;6.55;;
3415;SDS011;1721;51.238;9.562;2022-08-25T06:46:20;15.13;;;6.90;;
3415;SDS011;1721;51.238;9.562;2022-08-25T06:48:47;13.10;;;6.22;;
3415;SDS011;1721;51.238;9.562;2022-08-25T06:51:14;18.95;;;7.43;;
3415;SDS011;1721;51.238;9.562;2022-08-25T06:53:42;13.70;;;6.87;;
3415;SDS011;1721;51.238;9.562;2022-08-25T06:56:09;15.25;;;6.80;;
3415;SDS011;1721;51.238;9.562;2022-08-25T06:58:35;12.20;;;6.47;;
3415;SDS011;1721;51.238;9.562;2022-08-25T07:01:13;13.20;;;7.47;;
3415;SDS011;1721;51.238;9.562;2022-08-25T07:03:47;14.27;;;7.03;;
3415;SDS011;1721;51.238;9.562;2022-08-25T07:06:14;16.58;;;7.00;;
3415;SDS011;1721;51.238;9.562;2022-08-25T07:08:42;13.70;;;7.30;;
3415;SDS011;1721;51.238;9.562;2022-08-25T07:11:08;16.73;;;7.40;;
3415;SDS011;1721;51.238;9.562;2022-08-25T07:13:35;14.73;;;6.78;;
3415;SDS011;1721;51.238;9.562;2022-08-25T07:16:02;17.38;;;6.93;;
3415;SDS011;1721;51.238;9.562;2022-08-25T07:18:32;11.88;;;6.40;;
3415;SDS011;1721;51.238;9.562;2022-08-25T07:20:58;13.80;;;6.70;;
3415;SDS011;1721;51.238;9.562;2022-08-25T07:23:24;14.70;;;6.80;;
3415;SDS011;1721;51.238;9.562;2022-08-25T07:25:51;21.75;;;7.20;;
3415;SDS011;1721;51.238;9.562;2022-08-25T07:28:17;16.40;;;6.78;;
3415;SDS011;1721;51.238;9.562;2022-08-25T07:30:44;14.70;;;7.00;;
3415;SDS011;1721;51.238;9.562;2022-08-25T07:33:10;15.75;;;7.30;;
3415;SDS011;1721;51.238;9.562;2022-08-25T07:35:36;20.00;;;6.78;;
3415;SDS011;1721;51.238;9.562;2022-08-25T07:38:02;13.63;;;6.57;;
3415;SDS011;1721;51.238;9.562;2022-08-25T07:40:30;12.95;;;6.70;;
3415;SDS011;1721;51.238;9.562;2022-08-25T07:42:59;15.95;;;6.72;;
3415;SDS011;1721;51.238;9.562;2022-08-25T07:45:30;14.00;;;7.23;;
3415;SDS011;1721;51.238;9.562;2022-08-25T07:48:05;14.40;;;7.03;;
3415;SDS011;1721;51.238;9.562;2022-08-25T07:50:33;14.40;;;7.00;;
3415;SDS011;1721;51.238;9.562;2022-08-25T07:53:02;14.40;;;7.20;;
3415;SDS011;1721;51.238;9.562;2022-08-25T07:55:28;15.77;;;7.20;;
3415;SDS011;1721;51.238;9.562;2022-08-25T07:57:54;13.02;;;6.20;;
3415;SDS011;1721;51.238;9.562;2022-08-25T08:00:21;15.85;;;6.72;;
3415;SDS011;1721;51.238;9.562;2022-08-25T08:02:47;11.68;;;6.07;;
3415;SDS011;1721;51.238;9.562;2022-08-25T08:05:13;15.07;;;6.50;;
3415;SDS011;1721;51.238;9.562;2022-08-25T08:07:39;12.37;;;6.57;;
3415;SDS011;1721;51.238;9.562;2022-08-25T08:10:06;18.05;;;6.75;;
3415;SDS011;1721;51.238;9.562;2022-08-25T08:12:34;12.40;;;6.30;;
3415;SDS011;1721;51.238;9.562;2022-08-25T08:15:00;15.30;;;5.80;;
3415;SDS011;1721;51.238;9.562;2022-08-25T08:17:26;11.70;;;6.40;;
3415;SDS011;1721;51.238;9.562;2022-08-25T08:19:52;13.80;;;6.30;;
3415;SDS011;1721;51.238;9.562;2022-08-25T08:22:18;11.90;;;6.65;;
3415;SDS011;1721;51.238;9.562;2022-08-25T08:24:43;14.13;;;6.30;;
3415;SDS011;1721;51.238;9.562;2022-08-25T08:27:10;14.93;;;6.50;;
3415;SDS011;1721;51.238;9.562;2022-08-25T08:29:38;13.43;;;6.95;;
3415;SDS011;1721;51.238;9.562;2022-08-25T08:32:05;15.68;;;6.97;;
3415;SDS011;1721;51.238;9.562;2022-08-25T08:34:33;15.65;;;6.70;;
3415;SDS011;1721;51.238;9.562;2022-08-25T08:36:59;11.50;;;6.30;;
3415;SDS011;1721;51.238;9.562;2022-08-25T08:39:25;14.88;;;6.32;;
3415;SDS011;1721;51.238;9.562;2022-08-25T08:55:48;14.32;;;6.60;;
3415;SDS011;1721;51.238;9.562;2022-08-25T09:00:48;11.98;;;5.85;;
3415;SDS011;1721;51.238;9.562;2022-08-25T09:03:39;15.57;;;5.75;;
3415;SDS011;1721;51.238;9.562;2022-08-25T09:06:29;19.10;;;5.88;;
3415;SDS011;1721;51.238;9.562;2022-08-25T09:08:59;11.18;;;5.82;;
3415;SDS011;1721;51.238;9.562;2022-08-25T09:14:34;16.35;;;6.18;;
3415;SDS011;1721;51.238;9.562;2022-08-25T09:17:06;13.32;;;5.80;;
3415;SDS011;1721;51.238;9.562;2022-08-25T09:30:18;15.40;;;5.30;;
3415;SDS011;1721;51.238;9.562;2022-08-25T09:32:49;10.90;;;5.68;;
3415;SDS011;1721;51.238;9.562;2022-08-25T09:35:27;14.83;;;5.77;;
3415;SDS011;1721;51.238;9.562;2022-08-25T09:38:04;12.70;;;5.68;;
3415;SDS011;1721;51.238;9.562;2022-08-25T09:40:35;13.50;;;5.80;;
3415;SDS011;1721;51.238;9.562;2022-08-25T09:43:20;11.77;;;5.85;;
3415;SDS011;1721;51.238;9.562;2022-08-25T09:48:56;14.03;;;5.90;;
3415;SDS011;1721;51.238;9.562;2022-08-25T09:51:35;14.75;;;6.40;;
3415;SDS011;1721;51.238;9.562;2022-08-25T09:56:52;14.35;;;5.95;;
3415;SDS011;1721;51.238;9.562;2022-08-25T09:59:26;14.45;;;5.50;;
3415;SDS011;1721;51.238;9.562;2022-08-25T10:01:55;14.27;;;6.25;;
3415;SDS011;1721;51.238;9.562;2022-08-25T10:06:52;11.98;;;6.05;;
3415;SDS011;1721;51.238;9.562;2022-08-25T10:09:28;14.17;;;6.47;;
3415;SDS011;1721;51.238;9.562;2022-08-25T10:11:58;10.65;;;5.07;;
3415;SDS011;1721;51.238;9.562;2022-08-25T10:17:15;15.70;;;6.20;;
3415;SDS011;1721;51.238;9.562;2022-08-25T10:20:11;11.65;;;5.38;;
3415;SDS011;1721;51.238;9.562;2022-08-25T10:22:37;13.88;;;5.63;;
3415;SDS011;1721;51.238;9.562;2022-08-25T10:25:05;13.32;;;5.82;;
3415;SDS011;1721;51.238;9.562;2022-08-25T10:33:04;13.55;;;5.50;;
3415;SDS011;1721;51.238;9.562;2022-08-25T10:35:57;12.90;;;5.40;;
3415;SDS011;1721;51.238;9.562;2022-08-25T10:38:56;11.13;;;5.35;;
3415;SDS011;1721;51.238;9.562;2022-08-25T10:46:48;15.00;;;5.65;;
3415;SDS011;1721;51.238;9.562;2022-08-25T10:49:29;11.13;;;6.10;;
3415;SDS011;1721;51.238;9.562;2022-08-25T10:52:04;15.07;;;5.60;;
3415;SDS011;1721;51.238;9.562;2022-08-25T10:57:33;12.20;;;5.37;;
3415;SDS011;1721;51.238;9.562;2022-08-25T11:00:09;10.73;;;6.22;;
3415;SDS011;1721;51.238;9.562;2022-08-25T11:27:12;15.03;;;7.03;;
3415;SDS011;1721;51.238;9.562;2022-08-25T11:29:44;17.67;;;7.10;;
3415;SDS011;1721;51.238;9.562;2022-08-25T11:32:20;13.07;;;7.30;;
3415;SDS011;1721;51.238;9.562;2022-08-25T11:34:48;14.57;;;6.70;;
3415;SDS011;1721;51.238;9.562;2022-08-25T11:37:21;13.20;;;6.43;;
3415;SDS011;1721;51.238;9.562;2022-08-25T11:51:43;12.90;;;6.90;;
3415;SDS011;1721;51.238;9.562;2022-08-25T11:57:01;10.85;;;5.15;;
3415;SDS011;1721;51.238;9.562;2022-08-25T12:05:00;13.30;;;6.47;;
3415;SDS011;1721;51.238;9.562;2022-08-25T12:07:30;13.23;;;6.00;;
3415;SDS011;1721;51.238;9.562;2022-08-25T12:10:52;15.02;;;6.70;;
3415;SDS011;1721;51.238;9.562;2022-08-25T12:13:36;11.93;;;6.15;;
3415;SDS011;1721;51.238;9.562;2022-08-25T12:16:05;11.23;;;6.20;;
3415;SDS011;1721;51.238;9.562;2022-08-25T12:34:48;11.45;;;5.25;;
3415;SDS011;1721;51.238;9.562;2022-08-25T12:37:22;9.57;;;5.50;;
3415;SDS011;1721;51.238;9.562;2022-08-25T12:47:43;11.02;;;5.40;;
3415;SDS011;1721;51.238;9.562;2022-08-25T12:53:15;11.77;;;4.93;;
3415;SDS011;1721;51.238;9.562;2022-08-25T12:55:59;11.55;;;4.85;;
3415;SDS011;1721;51.238;9.562;2022-08-25T12:59:31;12.55;;;5.55;;
3415;SDS011;1721;51.238;9.562;2022-08-25T13:04:18;9.90;;;5.20;;
3415;SDS011;1721;51.238;9.562;2022-08-25T13:12:29;10.55;;;5.15;;
3415;SDS011;1721;51.238;9.562;2022-08-25T13:14:55;14.77;;;5.63;;
3415;SDS011;1721;51.238;9.562;2022-08-25T13:17:26;13.15;;;5.50;;
3415;SDS011;1721;51.238;9.562;2022-08-25T13:20:09;12.50;;;5.45;;
3415;SDS011;1721;51.238;9.562;2022-08-25T13:22:49;11.45;;;5.60;;
3415;SDS011;1721;51.238;9.562;2022-08-25T13:25:17;9.52;;;5.10;;
3415;SDS011;1721;51.238;9.562;2022-08-25T13:27:49;11.02;;;5.20;;
3415;SDS011;1721;51.238;9.562;2022-08-25T13:30:24;11.80;;;5.30;;
3415;SDS011;1721;51.238;9.562;2022-08-25T13:32:53;12.32;;;4.80;;
3415;SDS011;1721;51.238;9.562;2022-08-25T13:37:51;13.63;;;5.55;;
3415;SDS011;1721;51.238;9.562;2022-08-25T13:40:25;17.73;;;5.18;;
3415;SDS011;1721;51.238;9.562;2022-08-25T13:42:59;10.70;;;5.50;;
3415;SDS011;1721;51.238;9.562;2022-08-25T13:45:30;11.55;;;5.30;;
3415;SDS011;1721;51.238;9.562;2022-08-25T13:48:01;13.57;;;5.57;;
3415;SDS011;1721;51.238;9.562;2022-08-25T13:52:55;9.88;;;5.30;;
3415;SDS011;1721;51.238;9.562;2022-08-25T13:55:25;13.20;;;5.38;;
3415;SDS011;1721;51.238;9.562;2022-08-25T13:57:58;10.45;;;5.68;;
3415;SDS011;1721;51.238;9.562;2022-08-25T14:00:29;15.52;;;5.70;;
3415;SDS011;1721;51.238;9.562;2022-08-25T14:03:04;13.75;;;5.40;;
3415;SDS011;1721;51.238;9.562;2022-08-25T14:08:07;12.88;;;5.53;;
3415;SDS011;1721;51.238;9.562;2022-08-25T14:11:05;12.50;;;5.40;;
3415;SDS011;1721;51.238;9.562;2022-08-25T14:13:33;9.00;;;5.20;;
3415;SDS011;1721;51.238;9.562;2022-08-25T14:19:03;9.70;;;5.30;;
3415;SDS011;1721;51.238;9.562;2022-08-25T14:21:30;11.07;;;5.50;;
3415;SDS011;1721;51.238;9.562;2022-08-25T14:23:57;10.05;;;5.20;;
3415;SDS011;1721;51.238;9.562;2022-08-25T14:26:24;12.48;;;5.25;;
3415;SDS011;1721;51.238;9.562;2022-08-25T14:28:50;13.88;;;5.13;;
3415;SDS011;1721;51.238;9.562;2022-08-25T14:31:18;15.93;;;5.10;;
3415;SDS011;1721;51.238;9.562;2022-08-25T14:33:57;12.93;;;5.70;;
3415;SDS011;1721;51.238;9.562;2022-08-25T14:36:28;14.63;;;5.32;;
3415;SDS011;1721;51.238;9.562;2022-08-25T14:38:55;14.45;;;5.80;;
3415;SDS011;1721;51.238;9.562;2022-08-25T14:41:21;9.93;;;5.40;;
3415;SDS011;1721;51.238;9.562;2022-08-25T14:43:48;10.20;;;5.50;;
3415;SDS011;1721;51.238;9.562;2022-08-25T14:46:17;11.13;;;5.90;;
3415;SDS011;1721;51.238;9.562;2022-08-25T14:48:52;9.88;;;5.50;;
3415;SDS011;1721;51.238;9.562;2022-08-25T14:51:21;10.95;;;5.40;;
3415;SDS011;1721;51.238;9.562;2022-08-25T14:53:48;13.13;;;5.68;;
3415;SDS011;1721;51.238;9.562;2022-08-25T14:56:13;9.40;;;5.70;;
3415;SDS011;1721;51.238;9.562;2022-08-25T14:58:39;12.00;;;5.80;;
3415;SDS011;1721;51.238;9.562;2022-08-25T15:01:05;13.35;;;5.70;;
3415;SDS011;1721;51.238;9.562;2022-08-25T15:03:36;17.50;;;6.53;;
3415;SDS011;1721;51.238;9.562;2022-08-25T15:06:03;13.30;;;5.80;;
3415;SDS011;1721;51.238;9.562;2022-08-25T15:08:30;11.90;;;5.15;;
3415;SDS011;1721;51.238;9.562;2022-08-25T15:11:14;12.23;;;5.50;;
3415;SDS011;1721;51.238;9.562;2022-08-25T15:13:40;12.38;;;5.53;;
3415;SDS011;1721;51.238;9.562;2022-08-25T15:16:09;9.98;;;5.15;;
3415;SDS011;1721;51.238;9.562;2022-08-25T15:18:38;12.48;;;5.40;;
3415;SDS011;1721;51.238;9.562;2022-08-25T15:21:04;13.80;;;5.40;;
3415;SDS011;1721;51.238;9.562;2022-08-25T15:23:29;10.43;;;5.25;;
3415;SDS011;1721;51.238;9.562;2022-08-25T15:25:56;9.60;;;5.45;;
3415;SDS011;1721;51.238;9.562;2022-08-25T15:28:21;12.03;;;6.03;;
3415;SDS011;1721;51.238;9.562;2022-08-25T15:30:48;11.60;;;5.90;;
3415;SDS011;1721;51.238;9.562;2022-08-25T15:33:14;11.00;;;5.40;;
3415;SDS011;1721;51.238;9.562;2022-08-25T15:35:40;10.90;;;5.30;;
3415;SDS011;1721;51.238;9.562;2022-08-25T15:38:05;11.13;;;5.80;;
3415;SDS011;1721;51.238;9.562;2022-08-25T15:40:31;10.88;;;5.30;;
3415;SDS011;1721;51.238;9.562;2022-08-25T15:42:59;12.70;;;5.67;;
3415;SDS011;1721;51.238;9.562;2022-08-25T15:45:25;12.23;;;5.40;;
3415;SDS011;1721;51.238;9.562;2022-08-25T15:47:51;16.67;;;6.53;;
3415;SDS011;1721;51.238;9.562;2022-08-25T15:50:18;10.48;;;5.90;;
3415;SDS011;1721;51.238;9.562;2022-08-25T15:52:45;11.60;;;5.55;;
3415;SDS011;1721;51.238;9.562;2022-08-25T15:55:10;12.98;;;5.97;;
3415;SDS011;1721;51.238;9.562;2022-08-25T15:57:37;20.08;;;5.60;;
3415;SDS011;1721;51.238;9.562;2022-08-25T16:00:04;10.13;;;5.70;;
3415;SDS011;1721;51.238;9.562;2022-08-25T16:02:31;12.07;;;5.78;;
3415;SDS011;1721;51.238;9.562;2022-08-25T16:04:58;16.00;;;5.75;;
3415;SDS011;1721;51.238;9.562;2022-08-25T16:07:25;13.40;;;5.90;;
3415;SDS011;1721;51.238;9.562;2022-08-25T16:09:53;14.20;;;5.97;;
3415;SDS011;1721;51.238;9.562;2022-08-25T16:12:20;12.10;;;5.72;;
3415;SDS011;1721;51.238;9.562;2022-08-25T16:14:47;15.35;;;4.97;;
3415;SDS011;1721;51.238;9.562;2022-08-25T16:17:12;9.50;;;5.50;;
3415;SDS011;1721;51.238;9.562;2022-08-25T16:19:38;12.63;;;5.47;;
3415;SDS011;1721;51.238;9.562;2022-08-25T16:22:04;13.30;;;5.78;;
3415;SDS011;1721;51.238;9.562;2022-08-25T16:24:30;9.90;;;5.03;;
3415;SDS011;1721;51.238;9.562;2022-08-25T16:26:56;15.20;;;5.73;;
3415;SDS011;1721;51.238;9.562;2022-08-25T16:29:28;15.30;;;5.55;;
3415;SDS011;1721;51.238;9.562;2022-08-25T16:32:02;14.25;;;6.15;;
3415;SDS011;1721;51.238;9.562;2022-08-25T16:34:29;11.95;;;5.53;;
3415;SDS011;1721;51.238;9.562;2022-08-25T16:36:55;14.40;;;5.80;;
3415;SDS011;1721;51.238;9.562;2022-08-25T16:39:21;12.65;;;5.90;;
3415;SDS011;1721;51.238;9.562;2022-08-25T16:41:47;12.55;;;5.75;;
3415;SDS011;1721;51.238;9.562;2022-08-25T16:44:14;11.40;;;5.60;;
3415;SDS011;1721;51.238;9.562;2022-08-25T16:46:40;12.80;;;6.03;;
3415;SDS011;1721;51.238;9.562;2022-08-25T16:49:07;11.98;;;5.78;;
3415;SDS011;1721;51.238;9.562;2022-08-25T16:51:34;12.20;;;5.53;;
3415;SDS011;1721;51.238;9.562;2022-08-25T16:54:00;15.77;;;5.60;;
3415;SDS011;1721;51.238;9.562;2022-08-25T16:56:44;11.48;;;5.68;;
3415;SDS011;1721;51.238;9.562;2022-08-25T16:59:10;15.60;;;5.70;;
3415;SDS011;1721;51.238;9.562;2022-08-25T17:01:37;11.52;;;5.45;;
3415;SDS011;1721;51.238;9.562;2022-08-25T17:04:04;10.75;;;5.45;;
3415;SDS011;1721;51.238;9.562;2022-08-25T17:06:35;11.73;;;5.88;;
3415;SDS011;1721;51.238;9.562;2022-08-25T17:09:04;14.27;;;6.40;;
3415;SDS011;1721;51.238;9.562;2022-08-25T17:11:32;17.80;;;5.78;;
3415;SDS011;1721;51.238;9.562;2022-08-25T17:14:00;12.27;;;5.75;;
3415;SDS011;1721;51.238;9.562;2022-08-25T17:16:29;11.10;;;5.63;;
3415;SDS011;1721;51.238;9.562;2022-08-25T17:18:59;11.82;;;5.70;;
3415;SDS011;1721;51.238;9.562;2022-08-25T17:21:27;20.08;;;6.00;;
3415;SDS011;1721;51.238;9.562;2022-08-25T17:23:56;15.30;;;5.50;;
3415;SDS011;1721;51.238;9.562;2022-08-25T17:26:22;10.77;;;5.73;;
3415;SDS011;1721;51.238;9.562;2022-08-25T17:28:48;17.33;;;6.25;;
3415;SDS011;1721;51.238;9.562;2022-08-25T17:31:14;14.57;;;5.90;;
3415;SDS011;1721;51.238;9.562;2022-08-25T17:33:40;12.73;;;5.80;;
3415;SDS011;1721;51.238;9.562;2022-08-25T17:36:06;15.23;;;5.93;;
3415;SDS011;1721;51.238;9.562;2022-08-25T17:38:32;10.27;;;5.68;;
3415;SDS011;1721;51.238;9.562;2022-08-25T17:40:59;16.67;;;6.10;;